sensor_id;sensor_type;location;lat;lon;timestamp;P1;durP1;ratioP1;P2;durP2;ratioP2
20480;SDS011;10399;50.754;3.366;2024-02-21T00:02:18;27.50;;;9.65;;
20480;SDS011;10399;50.754;3.366;2024-02-21T00:04:45;25.70;;;9.13;;
20480;SDS011;10399;50.754;3.366;2024-02-21T00:07:19;28.20;;;9.30;;
20480;SDS011;10399;50.754;3.366;2024-02-21T00:09:46;26.70;;;9.52;;
20480;SDS011;10399;50.754;3.366;2024-02-21T00:12:13;25.17;;;8.80;;
20480;SDS011;10399;50.754;3.366;2024-02-21T00:17:54;31.90;;;9.27;;
20480;SDS011;10399;50.754;3.366;2024-02-21T00:20:29;33.38;;;9.65;;
20480;SDS011;10399;50.754;3.366;2024-02-21T00:23:29;28.23;;;8.95;;
20480;SDS011;10399;50.754;3.366;2024-02-21T00:26:10;30.20;;;8.75;;
20480;SDS011;10399;50.754;3.366;2024-02-21T00:28:58;33.90;;;8.93;;
20480;SDS011;10399;50.754;3.366;2024-02-21T00:35:14;26.35;;;9.00;;
20480;SDS011;10399;50.754;3.366;2024-02-21T00:44:12;24.10;;;8.55;;
20480;SDS011;10399;50.754;3.366;2024-02-21T00:53:18;34.60;;;8.27;;
20480;SDS011;10399;50.754;3.366;2024-02-21T00:58:40;28.85;;;8.30;;
20480;SDS011;10399;50.754;3.366;2024-02-21T01:01:10;28.95;;;8.85;;
20480;SDS011;10399;50.754;3.366;2024-02-21T01:03:51;31.60;;;7.78;;
20480;SDS011;10399;50.754;3.366;2024-02-21T01:09:31;27.02;;;7.20;;
20480;SDS011;10399;50.754;3.366;2024-02-21T01:15:23;29.33;;;7.53;;
20480;SDS011;10399;50.754;3.366;2024-02-21T01:17:59;25.17;;;8.10;;
20480;SDS011;10399;50.754;3.366;2024-02-21T01:20:59;24.55;;;7.05;;
20480;SDS011;10399;50.754;3.366;2024-02-21T01:27:04;26.23;;;8.25;;
20480;SDS011;10399;50.754;3.366;2024-02-21T01:29:34;29.38;;;11.27;;
20480;SDS011;10399;50.754;3.366;2024-02-21T01:35:15;29.80;;;9.07;;
20480;SDS011;10399;50.754;3.366;2024-02-21T01:40:37;22.65;;;7.65;;
20480;SDS011;10399;50.754;3.366;2024-02-21T01:46:31;23.40;;;7.28;;
20480;SDS011;10399;50.754;3.366;2024-02-21T01:49:49;23.92;;;7.00;;
20480;SDS011;10399;50.754;3.366;2024-02-21T01:52:22;25.23;;;7.75;;
20480;SDS011;10399;50.754;3.366;2024-02-21T01:54:52;21.20;;;7.75;;
20480;SDS011;10399;50.754;3.366;2024-02-21T01:58:05;28.88;;;7.55;;
20480;SDS011;10399;50.754;3.366;2024-02-21T02:00:47;19.25;;;7.72;;
20480;SDS011;10399;50.754;3.366;2024-02-21T02:03:57;25.33;;;7.35;;
20480;SDS011;10399;50.754;3.366;2024-02-21T02:13:09;18.88;;;6.97;;
20480;SDS011;10399;50.754;3.366;2024-02-21T02:15:52;26.15;;;7.97;;
20480;SDS011;10399;50.754;3.366;2024-02-21T02:18:58;24.65;;;8.25;;
20480;SDS011;10399;50.754;3.366;2024-02-21T02:22:09;29.77;;;7.22;;
20480;SDS011;10399;50.754;3.366;2024-02-21T02:28:15;26.13;;;8.00;;
20480;SDS011;10399;50.754;3.366;2024-02-21T02:33:31;22.58;;;7.60;;
20480;SDS011;10399;50.754;3.366;2024-02-21T02:39:05;20.17;;;7.68;;
20480;SDS011;10399;50.754;3.366;2024-02-21T02:44:47;24.42;;;8.05;;
20480;SDS011;10399;50.754;3.366;2024-02-21T02:47:17;23.63;;;8.50;;
20480;SDS011;10399;50.754;3.366;2024-02-21T02:52:57;24.38;;;8.00;;
20480;SDS011;10399;50.754;3.366;2024-02-21T02:58:13;26.17;;;8.65;;
20480;SDS011;10399;50.754;3.366;2024-02-21T03:06:32;22.05;;;8.68;;
20480;SDS011;10399;50.754;3.366;2024-02-21T03:12:26;24.15;;;8.45;;
20480;SDS011;10399;50.754;3.366;2024-02-21T03:18:01;27.30;;;9.60;;
20480;SDS011;10399;50.754;3.366;2024-02-21T03:24:00;24.75;;;9.02;;
20480;SDS011;10399;50.754;3.366;2024-02-21T03:26:36;21.95;;;8.27;;
20480;SDS011;10399;50.754;3.366;2024-02-21T03:29:10;23.10;;;9.23;;
20480;SDS011;10399;50.754;3.366;2024-02-21T03:31:52;26.98;;;9.15;;
20480;SDS011;10399;50.754;3.366;2024-02-21T03:34:31;20.48;;;8.68;;
20480;SDS011;10399;50.754;3.366;2024-02-21T03:37:01;33.10;;;10.95;;
20480;SDS011;10399;50.754;3.366;2024-02-21T03:40:24;24.73;;;8.80;;
20480;SDS011;10399;50.754;3.366;2024-02-21T03:42:51;29.75;;;9.27;;
20480;SDS011;10399;50.754;3.366;2024-02-21T03:45:17;26.73;;;9.48;;
20480;SDS011;10399;50.754;3.366;2024-02-21T03:47:44;25.80;;;9.15;;
20480;SDS011;10399;50.754;3.366;2024-02-21T03:50:11;23.63;;;8.73;;
20480;SDS011;10399;50.754;3.366;2024-02-21T03:52:38;25.77;;;9.13;;
20480;SDS011;10399;50.754;3.366;2024-02-21T03:55:05;23.20;;;9.48;;
20480;SDS011;10399;50.754;3.366;2024-02-21T03:57:34;24.33;;;8.82;;
20480;SDS011;10399;50.754;3.366;2024-02-21T04:00:01;20.67;;;9.35;;
20480;SDS011;10399;50.754;3.366;2024-02-21T04:02:35;20.42;;;9.13;;
20480;SDS011;10399;50.754;3.366;2024-02-21T04:05:03;25.50;;;8.68;;
20480;SDS011;10399;50.754;3.366;2024-02-21T04:07:31;23.77;;;8.98;;
20480;SDS011;10399;50.754;3.366;2024-02-21T04:10:01;25.80;;;9.32;;
20480;SDS011;10399;50.754;3.366;2024-02-21T04:12:35;31.45;;;9.48;;
20480;SDS011;10399;50.754;3.366;2024-02-21T04:15:02;24.58;;;10.32;;
20480;SDS011;10399;50.754;3.366;2024-02-21T04:17:29;21.75;;;9.73;;
20480;SDS011;10399;50.754;3.366;2024-02-21T04:20:01;21.33;;;9.23;;
20480;SDS011;10399;50.754;3.366;2024-02-21T04:22:35;22.88;;;9.18;;
20480;SDS011;10399;50.754;3.366;2024-02-21T04:25:23;24.40;;;9.82;;
20480;SDS011;10399;50.754;3.366;2024-02-21T04:27:50;27.33;;;9.70;;
20480;SDS011;10399;50.754;3.366;2024-02-21T04:30:20;23.60;;;9.00;;
20480;SDS011;10399;50.754;3.366;2024-02-21T04:32:49;23.80;;;10.15;;
20480;SDS011;10399;50.754;3.366;2024-02-21T04:35:16;21.60;;;9.98;;
20480;SDS011;10399;50.754;3.366;2024-02-21T04:37:44;24.60;;;9.73;;
20480;SDS011;10399;50.754;3.366;2024-02-21T04:40:11;26.05;;;10.52;;
20480;SDS011;10399;50.754;3.366;2024-02-21T04:42:40;23.10;;;9.85;;
20480;SDS011;10399;50.754;3.366;2024-02-21T04:45:10;23.27;;;9.13;;
20480;SDS011;10399;50.754;3.366;2024-02-21T04:47:37;21.38;;;9.27;;
20480;SDS011;10399;50.754;3.366;2024-02-21T04:50:07;25.30;;;10.23;;
20480;SDS011;10399;50.754;3.366;2024-02-21T04:52:34;20.10;;;9.55;;
20480;SDS011;10399;50.754;3.366;2024-02-21T04:55:01;17.27;;;9.38;;
20480;SDS011;10399;50.754;3.366;2024-02-21T04:57:28;23.25;;;9.68;;
20480;SDS011;10399;50.754;3.366;2024-02-21T04:59:57;23.02;;;9.32;;
20480;SDS011;10399;50.754;3.366;2024-02-21T05:02:24;23.27;;;10.02;;
20480;SDS011;10399;50.754;3.366;2024-02-21T05:04:55;25.25;;;9.63;;
20480;SDS011;10399;50.754;3.366;2024-02-21T05:07:24;20.63;;;9.32;;
20480;SDS011;10399;50.754;3.366;2024-02-21T05:09:52;22.98;;;9.43;;
20480;SDS011;10399;50.754;3.366;2024-02-21T05:12:19;23.75;;;9.68;;
20480;SDS011;10399;50.754;3.366;2024-02-21T05:14:47;28.92;;;10.68;;
20480;SDS011;10399;50.754;3.366;2024-02-21T05:17:14;27.08;;;10.70;;
20480;SDS011;10399;50.754;3.366;2024-02-21T05:19:41;24.42;;;10.05;;
20480;SDS011;10399;50.754;3.366;2024-02-21T05:22:08;25.45;;;10.52;;
20480;SDS011;10399;50.754;3.366;2024-02-21T05:24:35;25.65;;;10.40;;
20480;SDS011;10399;50.754;3.366;2024-02-21T05:27:02;23.60;;;10.88;;
20480;SDS011;10399;50.754;3.366;2024-02-21T05:29:29;28.33;;;10.07;;
20480;SDS011;10399;50.754;3.366;2024-02-21T05:31:56;21.90;;;9.20;;
20480;SDS011;10399;50.754;3.366;2024-02-21T05:34:24;23.95;;;10.65;;
20480;SDS011;10399;50.754;3.366;2024-02-21T05:36:52;24.25;;;10.48;;
20480;SDS011;10399;50.754;3.366;2024-02-21T05:39:21;24.27;;;10.50;;
20480;SDS011;10399;50.754;3.366;2024-02-21T05:41:49;24.17;;;10.43;;
20480;SDS011;10399;50.754;3.366;2024-02-21T05:44:19;25.92;;;10.45;;
20480;SDS011;10399;50.754;3.366;2024-02-21T05:46:48;21.88;;;10.27;;
20480;SDS011;10399;50.754;3.366;2024-02-21T05:49:15;23.55;;;10.10;;
20480;SDS011;10399;50.754;3.366;2024-02-21T05:51:48;24.00;;;9.18;;
20480;SDS011;10399;50.754;3.366;2024-02-21T05:54:15;23.92;;;9.65;;
20480;SDS011;10399;50.754;3.366;2024-02-21T05:56:46;22.92;;;10.20;;
20480;SDS011;10399;50.754;3.366;2024-02-21T05:59:13;22.02;;;10.30;;
20480;SDS011;10399;50.754;3.366;2024-02-21T06:01:40;30.92;;;11.75;;
20480;SDS011;10399;50.754;3.366;2024-02-21T06:04:07;24.30;;;10.63;;
20480;SDS011;10399;50.754;3.366;2024-02-21T06:06:34;29.55;;;11.93;;
20480;SDS011;10399;50.754;3.366;2024-02-21T06:09:01;23.45;;;11.23;;
20480;SDS011;10399;50.754;3.366;2024-02-21T06:11:29;27.10;;;11.32;;
20480;SDS011;10399;50.754;3.366;2024-02-21T06:13:56;29.17;;;11.32;;
20480;SDS011;10399;50.754;3.366;2024-02-21T06:16:23;21.98;;;11.02;;
20480;SDS011;10399;50.754;3.366;2024-02-21T06:18:50;25.30;;;10.60;;
20480;SDS011;10399;50.754;3.366;2024-02-21T06:21:17;23.33;;;10.88;;
20480;SDS011;10399;50.754;3.366;2024-02-21T06:23:44;25.92;;;11.68;;
20480;SDS011;10399;50.754;3.366;2024-02-21T06:26:11;21.67;;;10.43;;
20480;SDS011;10399;50.754;3.366;2024-02-21T06:28:38;23.20;;;10.40;;
20480;SDS011;10399;50.754;3.366;2024-02-21T06:31:05;25.20;;;10.68;;
20480;SDS011;10399;50.754;3.366;2024-02-21T06:33:32;28.63;;;11.25;;
20480;SDS011;10399;50.754;3.366;2024-02-21T06:35:59;21.33;;;10.90;;
20480;SDS011;10399;50.754;3.366;2024-02-21T06:38:26;21.88;;;10.75;;
20480;SDS011;10399;50.754;3.366;2024-02-21T06:40:53;18.25;;;10.63;;
20480;SDS011;10399;50.754;3.366;2024-02-21T06:43:21;21.15;;;11.48;;
20480;SDS011;10399;50.754;3.366;2024-02-21T06:45:48;21.30;;;12.07;;
20480;SDS011;10399;50.754;3.366;2024-02-21T06:48:17;24.50;;;12.05;;
20480;SDS011;10399;50.754;3.366;2024-02-21T06:50:46;26.80;;;12.65;;
20480;SDS011;10399;50.754;3.366;2024-02-21T06:53:13;24.55;;;12.68;;
20480;SDS011;10399;50.754;3.366;2024-02-21T06:55:40;27.63;;;13.52;;
20480;SDS011;10399;50.754;3.366;2024-02-21T06:58:07;29.27;;;13.75;;
20480;SDS011;10399;50.754;3.366;2024-02-21T07:00:39;27.52;;;13.93;;
20480;SDS011;10399;50.754;3.366;2024-02-21T07:03:07;24.98;;;14.07;;
20480;SDS011;10399;50.754;3.366;2024-02-21T07:05:34;30.48;;;14.20;;
20480;SDS011;10399;50.754;3.366;2024-02-21T07:08:01;24.95;;;13.35;;
20480;SDS011;10399;50.754;3.366;2024-02-21T07:10:29;26.25;;;14.15;;
20480;SDS011;10399;50.754;3.366;2024-02-21T07:12:57;28.52;;;13.55;;
20480;SDS011;10399;50.754;3.366;2024-02-21T07:15:24;31.33;;;13.98;;
20480;SDS011;10399;50.754;3.366;2024-02-21T07:17:53;26.90;;;13.15;;
20480;SDS011;10399;50.754;3.366;2024-02-21T07:20:20;28.10;;;13.73;;
20480;SDS011;10399;50.754;3.366;2024-02-21T07:22:47;24.35;;;13.05;;
20480;SDS011;10399;50.754;3.366;2024-02-21T07:25:14;22.92;;;12.65;;
20480;SDS011;10399;50.754;3.366;2024-02-21T07:27:42;29.05;;;12.93;;
20480;SDS011;10399;50.754;3.366;2024-02-21T07:30:10;29.02;;;12.40;;
20480;SDS011;10399;50.754;3.366;2024-02-21T07:32:41;27.77;;;12.93;;
20480;SDS011;10399;50.754;3.366;2024-02-21T07:35:08;24.55;;;12.63;;
20480;SDS011;10399;50.754;3.366;2024-02-21T07:37:38;23.30;;;12.85;;
20480;SDS011;10399;50.754;3.366;2024-02-21T07:40:06;24.45;;;12.77;;
20480;SDS011;10399;50.754;3.366;2024-02-21T07:42:38;25.55;;;13.60;;
20480;SDS011;10399;50.754;3.366;2024-02-21T07:45:06;28.15;;;13.35;;
20480;SDS011;10399;50.754;3.366;2024-02-21T07:47:34;28.25;;;14.15;;
20480;SDS011;10399;50.754;3.366;2024-02-21T07:50:02;29.30;;;13.82;;
20480;SDS011;10399;50.754;3.366;2024-02-21T07:52:31;27.70;;;13.65;;
20480;SDS011;10399;50.754;3.366;2024-02-21T07:54:58;23.58;;;13.55;;
20480;SDS011;10399;50.754;3.366;2024-02-21T07:57:25;35.45;;;13.77;;
20480;SDS011;10399;50.754;3.366;2024-02-21T07:59:52;29.85;;;13.85;;
20480;SDS011;10399;50.754;3.366;2024-02-21T08:02:19;23.35;;;12.73;;
20480;SDS011;10399;50.754;3.366;2024-02-21T08:04:46;32.33;;;13.52;;
20480;SDS011;10399;50.754;3.366;2024-02-21T08:07:13;22.60;;;13.13;;
20480;SDS011;10399;50.754;3.366;2024-02-21T08:09:40;25.52;;;12.10;;
20480;SDS011;10399;50.754;3.366;2024-02-21T08:12:07;27.70;;;12.23;;
20480;SDS011;10399;50.754;3.366;2024-02-21T08:14:34;23.15;;;12.38;;
20480;SDS011;10399;50.754;3.366;2024-02-21T08:17:02;25.83;;;11.65;;
20480;SDS011;10399;50.754;3.366;2024-02-21T08:19:30;26.40;;;12.07;;
20480;SDS011;10399;50.754;3.366;2024-02-21T08:21:57;24.45;;;11.48;;
20480;SDS011;10399;50.754;3.366;2024-02-21T08:24:24;21.25;;;11.15;;
20480;SDS011;10399;50.754;3.366;2024-02-21T08:26:51;27.42;;;11.93;;
20480;SDS011;10399;50.754;3.366;2024-02-21T08:29:18;22.60;;;10.60;;
20480;SDS011;10399;50.754;3.366;2024-02-21T08:31:45;24.15;;;10.52;;
20480;SDS011;10399;50.754;3.366;2024-02-21T08:34:12;24.00;;;11.07;;
20480;SDS011;10399;50.754;3.366;2024-02-21T08:36:40;26.25;;;11.45;;
20480;SDS011;10399;50.754;3.366;2024-02-21T08:39:07;21.55;;;10.07;;
20480;SDS011;10399;50.754;3.366;2024-02-21T08:41:36;21.38;;;10.75;;
20480;SDS011;10399;50.754;3.366;2024-02-21T08:44:25;18.92;;;8.80;;
20480;SDS011;10399;50.754;3.366;2024-02-21T08:46:55;24.20;;;10.05;;
20480;SDS011;10399;50.754;3.366;2024-02-21T08:49:23;20.50;;;9.07;;
20480;SDS011;10399;50.754;3.366;2024-02-21T08:51:59;25.48;;;9.57;;
20480;SDS011;10399;50.754;3.366;2024-02-21T08:54:26;21.73;;;9.75;;
20480;SDS011;10399;50.754;3.366;2024-02-21T08:56:54;17.95;;;10.73;;
20480;SDS011;10399;50.754;3.366;2024-02-21T08:59:21;22.60;;;9.18;;
20480;SDS011;10399;50.754;3.366;2024-02-21T09:01:48;22.83;;;9.80;;
20480;SDS011;10399;50.754;3.366;2024-02-21T09:04:16;23.48;;;9.63;;
20480;SDS011;10399;50.754;3.366;2024-02-21T09:06:44;25.45;;;9.70;;
20480;SDS011;10399;50.754;3.366;2024-02-21T09:09:12;25.05;;;9.63;;
20480;SDS011;10399;50.754;3.366;2024-02-21T09:11:39;21.85;;;8.98;;
20480;SDS011;10399;50.754;3.366;2024-02-21T09:14:07;20.20;;;9.27;;
20480;SDS011;10399;50.754;3.366;2024-02-21T09:16:34;14.30;;;8.18;;
20480;SDS011;10399;50.754;3.366;2024-02-21T09:19:01;17.33;;;9.07;;
20480;SDS011;10399;50.754;3.366;2024-02-21T09:21:28;18.90;;;8.82;;
20480;SDS011;10399;50.754;3.366;2024-02-21T09:23:55;14.93;;;7.78;;
20480;SDS011;10399;50.754;3.366;2024-02-21T09:26:25;15.55;;;7.93;;
20480;SDS011;10399;50.754;3.366;2024-02-21T09:28:53;20.08;;;8.60;;
20480;SDS011;10399;50.754;3.366;2024-02-21T09:31:20;18.85;;;9.30;;
20480;SDS011;10399;50.754;3.366;2024-02-21T09:33:47;24.05;;;8.68;;
20480;SDS011;10399;50.754;3.366;2024-02-21T09:36:14;21.98;;;8.43;;
20480;SDS011;10399;50.754;3.366;2024-02-21T09:38:41;22.02;;;8.88;;
20480;SDS011;10399;50.754;3.366;2024-02-21T09:41:15;22.23;;;8.27;;
20480;SDS011;10399;50.754;3.366;2024-02-21T09:43:52;16.35;;;7.50;;
20480;SDS011;10399;50.754;3.366;2024-02-21T09:49:21;20.65;;;7.40;;
20480;SDS011;10399;50.754;3.366;2024-02-21T09:51:51;17.92;;;8.30;;
20480;SDS011;10399;50.754;3.366;2024-02-21T09:54:20;15.80;;;7.40;;
20480;SDS011;10399;50.754;3.366;2024-02-21T09:56:48;15.05;;;8.55;;
20480;SDS011;10399;50.754;3.366;2024-02-21T09:59:15;20.70;;;8.77;;
20480;SDS011;10399;50.754;3.366;2024-02-21T10:01:43;19.35;;;8.82;;
20480;SDS011;10399;50.754;3.366;2024-02-21T10:04:11;20.83;;;8.70;;
20480;SDS011;10399;50.754;3.366;2024-02-21T10:06:38;19.35;;;8.23;;
20480;SDS011;10399;50.754;3.366;2024-02-21T10:09:06;17.83;;;8.50;;
20480;SDS011;10399;50.754;3.366;2024-02-21T10:11:33;15.50;;;7.93;;
20480;SDS011;10399;50.754;3.366;2024-02-21T10:14:04;19.73;;;8.70;;
20480;SDS011;10399;50.754;3.366;2024-02-21T10:16:32;15.60;;;7.82;;
20480;SDS011;10399;50.754;3.366;2024-02-21T10:19:00;16.10;;;7.70;;
20480;SDS011;10399;50.754;3.366;2024-02-21T10:21:27;16.88;;;8.55;;
20480;SDS011;10399;50.754;3.366;2024-02-21T10:23:56;13.88;;;7.20;;
20480;SDS011;10399;50.754;3.366;2024-02-21T10:26:23;16.85;;;7.55;;
20480;SDS011;10399;50.754;3.366;2024-02-21T10:28:50;14.23;;;7.43;;
20480;SDS011;10399;50.754;3.366;2024-02-21T10:31:22;14.98;;;7.35;;
20480;SDS011;10399;50.754;3.366;2024-02-21T10:33:58;15.98;;;8.05;;
20480;SDS011;10399;50.754;3.366;2024-02-21T10:36:29;13.82;;;6.63;;
20480;SDS011;10399;50.754;3.366;2024-02-21T10:38:56;13.13;;;7.30;;
20480;SDS011;10399;50.754;3.366;2024-02-21T10:41:23;17.38;;;7.30;;
20480;SDS011;10399;50.754;3.366;2024-02-21T10:43:52;13.25;;;7.22;;
20480;SDS011;10399;50.754;3.366;2024-02-21T10:46:22;12.23;;;6.97;;
20480;SDS011;10399;50.754;3.366;2024-02-21T10:48:58;15.15;;;6.95;;
20480;SDS011;10399;50.754;3.366;2024-02-21T10:51:34;14.65;;;7.25;;
20480;SDS011;10399;50.754;3.366;2024-02-21T10:54:29;16.80;;;7.72;;
20480;SDS011;10399;50.754;3.366;2024-02-21T10:57:00;12.82;;;6.43;;
20480;SDS011;10399;50.754;3.366;2024-02-21T10:59:29;13.15;;;7.72;;
20480;SDS011;10399;50.754;3.366;2024-02-21T11:01:58;14.77;;;7.78;;
20480;SDS011;10399;50.754;3.366;2024-02-21T11:04:26;15.93;;;7.85;;
20480;SDS011;10399;50.754;3.366;2024-02-21T11:06:57;15.65;;;6.82;;
20480;SDS011;10399;50.754;3.366;2024-02-21T11:09:30;14.20;;;6.95;;
20480;SDS011;10399;50.754;3.366;2024-02-21T11:12:05;14.10;;;7.43;;
20480;SDS011;10399;50.754;3.366;2024-02-21T11:14:34;16.48;;;7.72;;
20480;SDS011;10399;50.754;3.366;2024-02-21T11:17:18;13.25;;;7.00;;
20480;SDS011;10399;50.754;3.366;2024-02-21T11:19:53;19.52;;;7.10;;
20480;SDS011;10399;50.754;3.366;2024-02-21T11:22:21;10.23;;;7.60;;
20480;SDS011;10399;50.754;3.366;2024-02-21T11:24:51;12.93;;;7.55;;
20480;SDS011;10399;50.754;3.366;2024-02-21T11:27:20;14.65;;;7.32;;
20480;SDS011;10399;50.754;3.366;2024-02-21T11:29:59;15.10;;;6.90;;
20480;SDS011;10399;50.754;3.366;2024-02-21T11:32:26;14.32;;;7.43;;
20480;SDS011;10399;50.754;3.366;2024-02-21T11:37:34;12.00;;;7.05;;
20480;SDS011;10399;50.754;3.366;2024-02-21T11:40:05;11.98;;;7.45;;
20480;SDS011;10399;50.754;3.366;2024-02-21T11:42:38;16.40;;;6.72;;
20480;SDS011;10399;50.754;3.366;2024-02-21T11:45:06;12.27;;;7.13;;
20480;SDS011;10399;50.754;3.366;2024-02-21T11:47:35;12.88;;;7.25;;
20480;SDS011;10399;50.754;3.366;2024-02-21T11:50:09;10.57;;;6.32;;
20480;SDS011;10399;50.754;3.366;2024-02-21T11:52:37;15.27;;;8.02;;
20480;SDS011;10399;50.754;3.366;2024-02-21T11:55:08;14.10;;;7.35;;
20480;SDS011;10399;50.754;3.366;2024-02-21T11:57:36;10.40;;;6.90;;
20480;SDS011;10399;50.754;3.366;2024-02-21T12:00:16;15.18;;;6.85;;
20480;SDS011;10399;50.754;3.366;2024-02-21T12:02:47;12.55;;;6.75;;
20480;SDS011;10399;50.754;3.366;2024-02-21T12:05:14;11.88;;;6.40;;
20480;SDS011;10399;50.754;3.366;2024-02-21T12:07:42;10.70;;;7.50;;
20480;SDS011;10399;50.754;3.366;2024-02-21T12:10:10;17.50;;;7.25;;
20480;SDS011;10399;50.754;3.366;2024-02-21T12:12:38;14.90;;;7.32;;
20480;SDS011;10399;50.754;3.366;2024-02-21T12:15:06;15.80;;;7.43;;
20480;SDS011;10399;50.754;3.366;2024-02-21T12:17:34;13.48;;;6.93;;
20480;SDS011;10399;50.754;3.366;2024-02-21T12:20:06;14.93;;;7.53;;
20480;SDS011;10399;50.754;3.366;2024-02-21T12:22:43;14.57;;;7.03;;
20480;SDS011;10399;50.754;3.366;2024-02-21T12:25:17;16.58;;;6.75;;
20480;SDS011;10399;50.754;3.366;2024-02-21T12:27:46;14.27;;;6.40;;
20480;SDS011;10399;50.754;3.366;2024-02-21T12:30:13;9.68;;;6.28;;
20480;SDS011;10399;50.754;3.366;2024-02-21T12:32:40;14.05;;;6.47;;
20480;SDS011;10399;50.754;3.366;2024-02-21T12:35:11;12.10;;;5.50;;
20480;SDS011;10399;50.754;3.366;2024-02-21T12:37:38;10.80;;;5.90;;
20480;SDS011;10399;50.754;3.366;2024-02-21T12:40:06;13.23;;;5.88;;
20480;SDS011;10399;50.754;3.366;2024-02-21T12:42:34;15.57;;;6.85;;
20480;SDS011;10399;50.754;3.366;2024-02-21T12:45:02;10.23;;;5.80;;
20480;SDS011;10399;50.754;3.366;2024-02-21T12:47:30;11.52;;;5.57;;
20480;SDS011;10399;50.754;3.366;2024-02-21T12:49:57;14.57;;;6.30;;
20480;SDS011;10399;50.754;3.366;2024-02-21T12:52:25;13.98;;;6.80;;
20480;SDS011;10399;50.754;3.366;2024-02-21T12:54:52;11.30;;;6.00;;
20480;SDS011;10399;50.754;3.366;2024-02-21T12:57:23;17.20;;;7.10;;
20480;SDS011;10399;50.754;3.366;2024-02-21T12:59:53;14.48;;;6.22;;
20480;SDS011;10399;50.754;3.366;2024-02-21T13:02:20;18.35;;;7.18;;
20480;SDS011;10399;50.754;3.366;2024-02-21T13:04:48;15.27;;;7.03;;
20480;SDS011;10399;50.754;3.366;2024-02-21T13:07:15;17.17;;;7.30;;
20480;SDS011;10399;50.754;3.366;2024-02-21T13:09:43;16.30;;;6.90;;
20480;SDS011;10399;50.754;3.366;2024-02-21T13:12:10;16.23;;;7.20;;
20480;SDS011;10399;50.754;3.366;2024-02-21T13:14:38;16.65;;;7.85;;
20480;SDS011;10399;50.754;3.366;2024-02-21T13:17:05;14.63;;;6.57;;
20480;SDS011;10399;50.754;3.366;2024-02-21T13:19:33;15.57;;;7.63;;
20480;SDS011;10399;50.754;3.366;2024-02-21T13:22:00;14.55;;;8.05;;
20480;SDS011;10399;50.754;3.366;2024-02-21T13:24:29;14.30;;;7.60;;
20480;SDS011;10399;50.754;3.366;2024-02-21T13:26:56;14.75;;;7.97;;
20480;SDS011;10399;50.754;3.366;2024-02-21T13:29:23;17.27;;;7.95;;
20480;SDS011;10399;50.754;3.366;2024-02-21T13:31:50;15.48;;;7.85;;
20480;SDS011;10399;50.754;3.366;2024-02-21T13:34:18;12.50;;;7.88;;
20480;SDS011;10399;50.754;3.366;2024-02-21T13:36:45;20.08;;;7.97;;
20480;SDS011;10399;50.754;3.366;2024-02-21T13:39:12;20.40;;;11.00;;
20480;SDS011;10399;50.754;3.366;2024-02-21T13:41:42;17.92;;;9.68;;
20480;SDS011;10399;50.754;3.366;2024-02-21T13:44:10;12.57;;;8.23;;
20480;SDS011;10399;50.754;3.366;2024-02-21T13:46:39;15.57;;;8.10;;
20480;SDS011;10399;50.754;3.366;2024-02-21T13:49:05;13.80;;;8.45;;
20480;SDS011;10399;50.754;3.366;2024-02-21T13:51:34;16.00;;;8.75;;
20480;SDS011;10399;50.754;3.366;2024-02-21T13:54:04;17.23;;;8.30;;
20480;SDS011;10399;50.754;3.366;2024-02-21T13:56:31;14.82;;;8.52;;
20480;SDS011;10399;50.754;3.366;2024-02-21T13:58:58;17.50;;;8.75;;
20480;SDS011;10399;50.754;3.366;2024-02-21T14:01:26;13.15;;;8.32;;
20480;SDS011;10399;50.754;3.366;2024-02-21T14:03:58;16.67;;;8.55;;
20480;SDS011;10399;50.754;3.366;2024-02-21T14:06:25;19.85;;;8.07;;
20480;SDS011;10399;50.754;3.366;2024-02-21T14:08:56;19.70;;;8.35;;
20480;SDS011;10399;50.754;3.366;2024-02-21T14:11:23;16.08;;;8.40;;
20480;SDS011;10399;50.754;3.366;2024-02-21T14:13:51;16.30;;;8.60;;
20480;SDS011;10399;50.754;3.366;2024-02-21T14:16:18;19.05;;;9.00;;
20480;SDS011;10399;50.754;3.366;2024-02-21T14:18:45;17.42;;;8.55;;
20480;SDS011;10399;50.754;3.366;2024-02-21T14:21:12;21.15;;;9.57;;
20480;SDS011;10399;50.754;3.366;2024-02-21T14:23:40;17.65;;;9.70;;
20480;SDS011;10399;50.754;3.366;2024-02-21T14:26:07;17.92;;;9.15;;
20480;SDS011;10399;50.754;3.366;2024-02-21T14:28:35;19.63;;;8.25;;
20480;SDS011;10399;50.754;3.366;2024-02-21T14:31:02;22.73;;;8.90;;
20480;SDS011;10399;50.754;3.366;2024-02-21T14:33:30;13.23;;;7.75;;
20480;SDS011;10399;50.754;3.366;2024-02-21T14:35:57;17.40;;;9.07;;
20480;SDS011;10399;50.754;3.366;2024-02-21T14:38:24;18.83;;;9.32;;
20480;SDS011;10399;50.754;3.366;2024-02-21T14:40:51;14.98;;;9.20;;
20480;SDS011;10399;50.754;3.366;2024-02-21T14:43:18;20.40;;;9.43;;
20480;SDS011;10399;50.754;3.366;2024-02-21T14:45:48;14.63;;;8.77;;
20480;SDS011;10399;50.754;3.366;2024-02-21T14:48:15;13.60;;;8.75;;
20480;SDS011;10399;50.754;3.366;2024-02-21T14:50:43;15.60;;;8.38;;
20480;SDS011;10399;50.754;3.366;2024-02-21T14:53:10;17.10;;;8.35;;
20480;SDS011;10399;50.754;3.366;2024-02-21T14:55:38;16.02;;;8.07;;
20480;SDS011;10399;50.754;3.366;2024-02-21T14:58:05;15.85;;;8.32;;
20480;SDS011;10399;50.754;3.366;2024-02-21T15:00:34;17.65;;;8.55;;
20480;SDS011;10399;50.754;3.366;2024-02-21T15:03:01;19.60;;;9.00;;
20480;SDS011;10399;50.754;3.366;2024-02-21T15:05:30;18.85;;;8.75;;
20480;SDS011;10399;50.754;3.366;2024-02-21T15:07:57;18.58;;;8.77;;
20480;SDS011;10399;50.754;3.366;2024-02-21T15:10:24;15.43;;;9.13;;
20480;SDS011;10399;50.754;3.366;2024-02-21T15:12:53;18.73;;;9.45;;
20480;SDS011;10399;50.754;3.366;2024-02-21T15:15:20;15.48;;;8.43;;
20480;SDS011;10399;50.754;3.366;2024-02-21T15:17:48;17.13;;;8.52;;
20480;SDS011;10399;50.754;3.366;2024-02-21T15:20:15;17.38;;;8.68;;
20480;SDS011;10399;50.754;3.366;2024-02-21T15:22:43;17.40;;;8.88;;
20480;SDS011;10399;50.754;3.366;2024-02-21T15:25:10;18.75;;;8.73;;
20480;SDS011;10399;50.754;3.366;2024-02-21T15:27:42;14.73;;;8.38;;
20480;SDS011;10399;50.754;3.366;2024-02-21T15:30:10;20.85;;;8.98;;
20480;SDS011;10399;50.754;3.366;2024-02-21T15:32:41;16.83;;;7.85;;
20480;SDS011;10399;50.754;3.366;2024-02-21T15:35:11;20.50;;;8.52;;
20480;SDS011;10399;50.754;3.366;2024-02-21T15:37:39;17.55;;;8.45;;
20480;SDS011;10399;50.754;3.366;2024-02-21T15:40:07;16.45;;;8.00;;
20480;SDS011;10399;50.754;3.366;2024-02-21T15:42:36;18.75;;;8.70;;
20480;SDS011;10399;50.754;3.366;2024-02-21T15:45:03;17.50;;;8.02;;
20480;SDS011;10399;50.754;3.366;2024-02-21T15:47:31;18.45;;;8.10;;
20480;SDS011;10399;50.754;3.366;2024-02-21T15:50:00;12.85;;;7.55;;
20480;SDS011;10399;50.754;3.366;2024-02-21T15:52:28;19.60;;;7.90;;
20480;SDS011;10399;50.754;3.366;2024-02-21T15:54:55;13.38;;;7.00;;
20480;SDS011;10399;50.754;3.366;2024-02-21T15:57:22;14.27;;;7.05;;
20480;SDS011;10399;50.754;3.366;2024-02-21T15:59:50;13.57;;;7.60;;
20480;SDS011;10399;50.754;3.366;2024-02-21T16:02:20;15.63;;;7.45;;
20480;SDS011;10399;50.754;3.366;2024-02-21T16:04:48;10.90;;;6.82;;
20480;SDS011;10399;50.754;3.366;2024-02-21T16:07:17;17.10;;;7.32;;
20480;SDS011;10399;50.754;3.366;2024-02-21T16:09:44;13.75;;;6.78;;
20480;SDS011;10399;50.754;3.366;2024-02-21T16:12:13;14.65;;;6.97;;
20480;SDS011;10399;50.754;3.366;2024-02-21T16:14:43;12.35;;;7.15;;
20480;SDS011;10399;50.754;3.366;2024-02-21T16:17:10;15.70;;;7.25;;